Time;durP1;ratioP1;P1;durP2;ratioP2;P2;SDS_P1;SDS_P2;PMS_P1;PMS_P2;Temp;Humidity;BMP_temperature;BMP_pressure;BME280_temperature;BME280_humidity;BME280_pressure;Samples;Min_cycle;Max_cycle;Signal;HPM_P1;HPM_P2
2023/08/16 00:01:29;;;;;;;9.80;8.52;;;17.80;99.90;;;;;;4826058;29;20042;-64
2023/08/16 00:03:56;;;;;;;10.35;7.85;;;17.80;99.90;;;;;;4821833;29;20513;-67
2023/08/16 00:06:24;;;;;;;13.70;9.88;;;17.80;99.90;;;;;;4828250;29;20049;-62
2023/08/16 00:08:53;;;;;;;12.75;9.95;;;17.80;99.90;;;;;;4824762;29;20053;-67
2023/08/16 00:11:20;;;;;;;8.87;7.87;;;17.80;99.90;;;;;;4826302;29;20641;-66
2023/08/16 00:13:47;;;;;;;12.88;10.90;;;17.80;99.90;;;;;;4824864;29;20317;-65
2023/08/16 00:16:14;;;;;;;10.80;9.80;;;17.80;99.90;;;;;;4822313;29;20076;-63
2023/08/16 00:18:41;;;;;;;11.50;9.02;;;17.80;99.90;;;;;;4826228;29;20136;-66
2023/08/16 00:21:08;;;;;;;11.27;10.15;;;17.80;99.90;;;;;;4828602;29;20567;-65
2023/08/16 00:23:34;;;;;;;21.98;10.70;;;17.80;99.90;;;;;;4822758;29;20480;-68
2023/08/16 00:26:01;;;;;;;12.73;10.32;;;17.80;99.90;;;;;;4826331;29;20052;-70
2023/08/16 00:28:28;;;;;;;13.15;8.88;;;17.80;99.90;;;;;;4824320;29;20137;-69
2023/08/16 00:30:56;;;;;;;10.27;9.10;;;17.70;99.90;;;;;;4823674;29;20125;-63
2023/08/16 00:33:22;;;;;;;10.18;9.15;;;17.80;99.90;;;;;;4821395;29;20114;-62
2023/08/16 00:35:52;;;;;;;10.18;9.07;;;17.70;99.90;;;;;;4826016;29;20098;-66
2023/08/16 00:38:19;;;;;;;10.13;9.07;;;17.70;99.90;;;;;;4811311;29;20061;-64
2023/08/16 00:40:50;;;;;;;10.80;9.80;;;17.70;99.90;;;;;;4820484;29;20049;-68
2023/08/16 00:43:18;;;;;;;10.98;9.65;;;17.70;99.90;;;;;;4825488;29;20429;-64
2023/08/16 00:45:47;;;;;;;11.82;10.50;;;17.70;99.90;;;;;;4817296;29;20152;-68
2023/08/16 00:48:14;;;;;;;10.53;9.57;;;17.70;99.90;;;;;;4823137;29;20141;-65
2023/08/16 00:50:42;;;;;;;10.45;9.23;;;17.70;99.90;;;;;;4825130;29;20128;-66
2023/08/16 00:53:11;;;;;;;10.15;9.10;;;17.70;99.90;;;;;;4823190;29;20065;-67
2023/08/16 00:55:38;;;;;;;11.52;10.38;;;17.60;99.90;;;;;;4822479;29;20054;-62
2023/08/16 00:58:05;;;;;;;9.65;8.73;;;17.70;99.90;;;;;;4824776;29;20062;-61
2023/08/16 01:00:34;;;;;;;10.25;9.25;;;17.70;99.90;;;;;;4823579;29;20050;-65
2023/08/16 01:03:01;;;;;;;11.88;10.80;;;17.70;99.90;;;;;;4816917;29;20068;-70
2023/08/16 01:05:28;;;;;;;10.55;9.48;;;17.70;99.90;;;;;;4820305;29;20049;-62
2023/08/16 01:07:55;;;;;;;10.80;9.80;;;17.70;99.90;;;;;;4824619;29;20053;-68
2023/08/16 01:10:31;;;;;;;12.27;10.70;;;17.70;99.90;;;;;;4824629;29;20065;-62
2023/08/16 01:13:20;;;;;;;10.15;9.25;;;17.70;99.90;;;;;;4821838;29;20073;-67
2023/08/16 01:15:49;;;;;;;14.38;10.40;;;17.70;99.90;;;;;;4823968;29;20793;-62
2023/08/16 01:18:16;;;;;;;12.38;11.20;;;17.70;99.90;;;;;;4828076;29;20077;-67
2023/08/16 01:20:47;;;;;;;10.38;9.02;;;17.70;99.90;;;;;;4816616;29;20058;-64
2023/08/16 01:23:30;;;;;;;11.02;9.85;;;17.70;99.90;;;;;;4825861;29;20056;-66
2023/08/16 01:26:11;;;;;;;11.23;9.35;;;17.70;99.90;;;;;;4826173;29;20476;-69
2023/08/16 01:28:39;;;;;;;10.68;9.15;;;17.70;99.90;;;;;;4827816;29;20042;-68
2023/08/16 01:31:06;;;;;;;10.85;9.85;;;17.70;99.90;;;;;;4826354;29;20050;-65
2023/08/16 01:33:33;;;;;;;12.95;9.73;;;17.70;99.90;;;;;;4821585;29;20050;-62
2023/08/16 01:36:00;;;;;;;12.73;10.38;;;17.70;99.90;;;;;;4824625;29;20054;-67
2023/08/16 01:38:28;;;;;;;11.18;9.63;;;17.70;99.90;;;;;;4820386;29;20073;-62
2023/08/16 01:41:05;;;;;;;12.63;10.73;;;17.70;99.90;;;;;;4827995;29;20480;-66
2023/08/16 01:43:33;;;;;;;10.27;9.18;;;17.60;99.90;;;;;;4800368;29;20555;-70
2023/08/16 01:46:02;;;;;;;11.20;10.10;;;17.60;99.90;;;;;;4824485;29;20058;-65
2023/08/16 01:48:32;;;;;;;9.77;8.93;;;17.60;99.90;;;;;;4824027;29;20459;-68
2023/08/16 01:50:59;;;;;;;11.53;10.43;;;17.70;99.90;;;;;;4824512;29;20096;-65
2023/08/16 01:53:27;;;;;;;10.65;9.65;;;17.70;99.90;;;;;;4826037;29;20706;-67
2023/08/16 01:55:54;;;;;;;12.13;10.95;;;17.80;99.90;;;;;;4819305;29;20115;-68
2023/08/16 01:58:21;;;;;;;11.25;10.02;;;17.80;99.90;;;;;;4824163;29;21529;-69
2023/08/16 02:00:48;;;;;;;10.07;9.07;;;17.80;99.90;;;;;;4823575;29;20065;-63
2023/08/16 02:03:16;;;;;;;10.88;9.70;;;17.80;99.90;;;;;;4815006;29;20118;-63
2023/08/16 02:05:43;;;;;;;12.55;11.43;;;17.80;99.90;;;;;;4825516;29;20685;-62
2023/08/16 02:08:12;;;;;;;16.27;10.85;;;17.80;99.90;;;;;;4821903;29;20053;-64
2023/08/16 02:10:39;;;;;;;11.70;10.60;;;17.80;99.90;;;;;;4820504;29;20069;-67
2023/08/16 02:13:06;;;;;;;10.25;9.35;;;17.90;99.90;;;;;;4827705;29;20065;-63
2023/08/16 02:15:33;;;;;;;9.27;8.48;;;17.80;99.90;;;;;;4816390;29;20054;-69
2023/08/16 02:18:00;;;;;;;11.02;9.98;;;17.90;99.90;;;;;;4826977;29;20052;-65
2023/08/16 02:20:27;;;;;;;11.23;9.40;;;17.90;99.90;;;;;;4824849;29;20145;-65
2023/08/16 02:22:53;;;;;;;10.82;9.52;;;17.80;99.90;;;;;;4821510;29;20467;-69
2023/08/16 02:25:20;;;;;;;12.68;11.50;;;17.80;99.90;;;;;;4828060;29;20065;-68
2023/08/16 02:27:47;;;;;;;11.50;10.25;;;17.80;99.90;;;;;;4824494;29;20461;-62
2023/08/16 02:30:14;;;;;;;11.07;10.10;;;17.90;99.90;;;;;;4825559;29;20576;-69
2023/08/16 02:32:41;;;;;;;11.05;10.02;;;17.90;99.90;;;;;;4824899;29;20134;-66
2023/08/16 02:35:08;;;;;;;14.80;12.70;;;17.90;99.90;;;;;;4825707;29;20464;-62
2023/08/16 02:37:35;;;;;;;13.55;12.18;;;18.00;99.90;;;;;;4823533;29;20078;-65
2023/08/16 02:40:03;;;;;;;14.48;12.20;;;18.10;99.90;;;;;;4827027;29;20073;-70
2023/08/16 02:42:30;;;;;;;15.93;11.85;;;18.20;99.90;;;;;;4821159;29;20050;-64
2023/08/16 02:44:57;;;;;;;13.80;12.40;;;18.20;99.90;;;;;;4821995;29;20148;-63
2023/08/16 02:47:24;;;;;;;14.52;12.10;;;18.20;99.90;;;;;;4826189;29;20972;-66
2023/08/16 02:49:52;;;;;;;11.98;10.88;;;18.30;99.90;;;;;;4827475;29;20133;-69
2023/08/16 02:52:19;;;;;;;12.57;11.48;;;18.30;99.90;;;;;;4824574;29;20046;-69
2023/08/16 02:54:46;;;;;;;11.40;10.30;;;18.30;99.90;;;;;;4827735;29;20044;-65
2023/08/16 02:57:13;;;;;;;11.02;9.93;;;18.30;99.90;;;;;;4827238;29;20078;-66
2023/08/16 02:59:41;;;;;;;13.20;11.80;;;18.30;99.90;;;;;;4823180;29;20540;-67
2023/08/16 03:02:08;;;;;;;10.38;9.27;;;18.30;99.90;;;;;;4824356;29;20058;-69
2023/08/16 03:04:44;;;;;;;10.95;9.85;;;18.20;99.90;;;;;;4826555;29;20055;-65
2023/08/16 03:07:11;;;;;;;14.18;10.88;;;18.20;99.90;;;;;;4828946;29;20054;-67
2023/08/16 03:09:39;;;;;;;11.88;10.52;;;18.20;99.90;;;;;;4827725;29;20586;-66
2023/08/16 03:12:06;;;;;;;12.10;10.90;;;18.10;99.90;;;;;;4811878;29;20061;-67
2023/08/16 03:14:33;;;;;;;11.73;10.63;;;18.10;99.90;;;;;;4820223;29;20058;-64
2023/08/16 03:17:01;;;;;;;12.07;10.57;;;18.10;99.90;;;;;;4821616;29;20046;-70
2023/08/16 03:19:28;;;;;;;12.02;10.63;;;18.10;99.90;;;;;;4828989;29;20058;-73
2023/08/16 03:21:58;;;;;;;10.75;9.70;;;18.10;99.90;;;;;;4810742;29;20081;-65
2023/08/16 03:24:26;;;;;;;12.68;11.48;;;18.10;99.90;;;;;;4822431;29;20054;-64
2023/08/16 03:26:55;;;;;;;12.57;11.48;;;18.10;99.90;;;;;;4824816;29;20062;-67
2023/08/16 03:29:22;;;;;;;13.77;12.25;;;18.10;99.90;;;;;;4825691;29;20054;-65
2023/08/16 03:31:50;;;;;;;12.65;11.45;;;18.10;99.90;;;;;;4819913;29;20070;-69
2023/08/16 03:34:17;;;;;;;13.90;12.60;;;18.00;99.90;;;;;;4815253;29;20051;-71
2023/08/16 03:36:44;;;;;;;12.38;11.27;;;18.00;99.90;;;;;;4828287;29;20083;-70
2023/08/16 03:39:12;;;;;;;11.80;10.60;;;18.00;99.90;;;;;;4819668;29;20050;-70
2023/08/16 03:41:38;;;;;;;12.60;11.32;;;18.00;99.90;;;;;;4827792;29;20141;-72
2023/08/16 03:44:08;;;;;;;14.90;13.50;;;18.00;99.90;;;;;;4818135;29;20066;-70
2023/08/16 03:46:35;;;;;;;12.77;11.50;;;18.00;99.90;;;;;;4825533;29;20061;-64
2023/08/16 03:49:03;;;;;;;14.30;12.95;;;18.00;99.90;;;;;;4824975;29;20477;-67
2023/08/16 03:51:31;;;;;;;13.48;12.27;;;18.00;99.90;;;;;;4825131;29;20919;-68
2023/08/16 03:53:58;;;;;;;13.43;12.20;;;18.00;99.90;;;;;;4825176;29;20068;-70
2023/08/16 03:56:25;;;;;;;15.00;13.45;;;18.00;99.90;;;;;;4809789;29;20057;-65
2023/08/16 03:58:54;;;;;;;12.30;11.20;;;18.00;99.90;;;;;;4819951;29;20143;-64
2023/08/16 04:01:22;;;;;;;12.85;11.57;;;18.00;99.90;;;;;;4829221;29;20138;-69
2023/08/16 04:03:50;;;;;;;13.30;12.10;;;18.00;99.90;;;;;;4826901;29;20242;-65
2023/08/16 04:06:20;;;;;;;13.55;12.30;;;18.00;99.90;;;;;;4827414;29;20544;-68
2023/08/16 04:08:47;;;;;;;14.50;13.10;;;18.00;99.90;;;;;;4822850;29;20061;-63
2023/08/16 04:11:14;;;;;;;17.00;11.95;;;18.00;99.90;;;;;;4822559;29;20134;-68
2023/08/16 04:13:41;;;;;;;12.48;11.25;;;18.10;99.90;;;;;;4819943;29;20125;-71
2023/08/16 04:16:10;;;;;;;15.85;14.23;;;18.10;99.90;;;;;;4819677;29;20053;-67
2023/08/16 04:18:37;;;;;;;14.93;13.40;;;18.10;99.90;;;;;;4814662;29;20050;-74
2023/08/16 04:21:04;;;;;;;13.63;12.43;;;18.10;99.90;;;;;;4815002;29;20815;-66
2023/08/16 04:23:31;;;;;;;13.93;12.48;;;18.10;99.90;;;;;;4831872;29;20056;-71
2023/08/16 04:26:01;;;;;;;13.65;12.45;;;18.20;99.90;;;;;;4827679;29;20038;-63
2023/08/16 04:28:29;;;;;;;18.10;14.00;;;18.20;99.90;;;;;;4824978;29;20046;-64
2023/08/16 04:30:59;;;;;;;14.18;12.77;;;18.20;99.90;;;;;;4810595;29;20496;-67
2023/08/16 04:33:26;;;;;;;13.38;11.95;;;18.20;99.90;;;;;;4825669;29;20050;-68
2023/08/16 04:35:55;;;;;;;18.95;14.98;;;18.20;99.90;;;;;;4821054;29;20054;-67
2023/08/16 04:38:22;;;;;;;13.35;12.23;;;18.30;99.90;;;;;;4825055;29;20058;-67
2023/08/16 04:40:50;;;;;;;16.85;14.90;;;18.30;99.90;;;;;;4825267;29;20055;-69
2023/08/16 04:43:18;;;;;;;15.48;13.93;;;18.40;99.90;;;;;;4826567;29;20046;-64
2023/08/16 04:45:46;;;;;;;15.73;13.93;;;18.30;99.90;;;;;;4822020;29;20054;-72
2023/08/16 04:48:14;;;;;;;16.33;14.82;;;18.40;99.90;;;;;;4825415;29;20058;-69
2023/08/16 04:50:41;;;;;;;14.43;12.95;;;18.40;99.90;;;;;;4822474;29;20057;-70
2023/08/16 04:53:10;;;;;;;18.83;16.27;;;18.40;99.90;;;;;;4825279;29;20158;-67
2023/08/16 04:55:38;;;;;;;17.48;15.88;;;18.40;99.90;;;;;;4802624;29;20378;-64
2023/08/16 04:58:05;;;;;;;14.88;13.38;;;18.50;99.90;;;;;;4829100;29;20146;-70
2023/08/16 05:00:33;;;;;;;15.93;14.50;;;18.50;99.90;;;;;;4821178;29;20057;-67
2023/08/16 05:03:03;;;;;;;18.00;16.23;;;18.50;99.90;;;;;;4819862;29;20069;-64
2023/08/16 05:05:31;;;;;;;19.35;15.18;;;18.50;99.90;;;;;;4815991;29;20072;-67
2023/08/16 05:07:58;;;;;;;15.90;14.45;;;18.60;99.90;;;;;;4820775;29;20716;-64
2023/08/16 05:10:25;;;;;;;16.52;14.90;;;18.60;99.90;;;;;;4825333;29;20431;-63
2023/08/16 05:12:52;;;;;;;19.77;16.38;;;18.60;99.90;;;;;;4825438;29;20477;-73
2023/08/16 05:15:19;;;;;;;17.90;15.90;;;18.70;99.90;;;;;;4815051;29;20061;-62
2023/08/16 05:17:46;;;;;;;19.77;17.33;;;18.70;99.90;;;;;;4826755;29;20062;-66
2023/08/16 05:20:13;;;;;;;17.83;16.05;;;18.70;99.90;;;;;;4818615;29;20134;-68
2023/08/16 05:22:40;;;;;;;19.63;17.48;;;18.80;99.90;;;;;;4827188;29;20141;-67
2023/08/16 05:25:07;;;;;;;30.35;19.25;;;18.80;99.90;;;;;;4828660;29;20077;-66
2023/08/16 05:27:34;;;;;;;21.20;16.88;;;18.80;99.90;;;;;;4823472;29;20054;-66
2023/08/16 05:30:02;;;;;;;19.58;17.45;;;18.80;99.90;;;;;;4825800;29;20414;-67
2023/08/16 05:32:29;;;;;;;18.40;16.02;;;18.90;99.90;;;;;;4823998;29;20537;-69
2023/08/16 05:34:56;;;;;;;17.65;15.85;;;18.80;99.90;;;;;;4824015;29;20047;-67
2023/08/16 05:37:23;;;;;;;15.50;13.95;;;18.90;99.90;;;;;;4821312;29;20913;-70
2023/08/16 05:39:50;;;;;;;17.67;15.85;;;18.90;99.90;;;;;;4825442;29;20042;-66
2023/08/16 05:42:17;;;;;;;20.40;18.35;;;18.90;99.90;;;;;;4827253;29;20515;-70
2023/08/16 05:44:44;;;;;;;21.42;17.02;;;18.90;99.90;;;;;;4821706;29;20465;-70
2023/08/16 05:47:11;;;;;;;19.55;17.45;;;18.90;99.90;;;;;;4824191;29;20049;-64
2023/08/16 05:49:38;;;;;;;17.98;15.90;;;18.90;99.90;;;;;;4832345;29;20046;-62
2023/08/16 05:52:04;;;;;;;19.15;16.73;;;19.00;99.90;;;;;;4829594;29;20049;-71
2023/08/16 05:54:31;;;;;;;19.50;17.25;;;19.00;99.90;;;;;;4829416;29;20049;-64
2023/08/16 05:56:58;;;;;;;21.40;17.63;;;19.00;99.90;;;;;;4829444;29;20058;-67
2023/08/16 05:59:25;;;;;;;22.85;17.98;;;19.00;99.90;;;;;;4830855;29;20045;-69
2023/08/16 06:01:52;;;;;;;23.13;18.70;;;19.10;99.90;;;;;;4828981;29;20122;-65
2023/08/16 06:04:19;;;;;;;19.85;17.65;;;19.20;99.90;;;;;;4823757;29;20416;-64
2023/08/16 06:06:46;;;;;;;19.20;17.30;;;19.20;99.90;;;;;;4826557;29;20046;-69
2023/08/16 06:09:13;;;;;;;23.73;18.42;;;19.20;99.90;;;;;;4828379;29;20141;-67
2023/08/16 06:11:39;;;;;;;20.88;18.20;;;19.30;99.90;;;;;;4827165;29;20437;-65
2023/08/16 06:14:06;;;;;;;20.88;16.15;;;19.40;99.90;;;;;;4823692;29;20046;-66
2023/08/16 06:16:35;;;;;;;22.92;16.90;;;19.40;99.90;;;;;;4828538;29;20070;-63
2023/08/16 06:19:02;;;;;;;24.55;19.35;;;19.40;99.90;;;;;;4821547;29;20087;-69
2023/08/16 06:21:29;;;;;;;18.80;16.85;;;19.40;99.90;;;;;;4828625;29;20042;-70
2023/08/16 06:23:56;;;;;;;17.90;15.95;;;19.50;99.90;;;;;;4825665;29;20058;-67
2023/08/16 06:26:23;;;;;;;17.45;15.73;;;19.50;99.90;;;;;;4824406;29;20038;-67
2023/08/16 06:28:50;;;;;;;19.20;15.52;;;19.60;99.90;;;;;;4824123;29;20054;-64
2023/08/16 06:31:17;;;;;;;18.42;15.15;;;19.50;99.90;;;;;;4828682;29;20052;-64
2023/08/16 06:33:45;;;;;;;18.98;16.95;;;19.50;99.90;;;;;;4823077;29;20050;-63
2023/08/16 06:36:12;;;;;;;17.23;15.45;;;19.60;99.90;;;;;;4820756;29;20132;-72
2023/08/16 06:38:39;;;;;;;16.65;14.95;;;19.70;99.90;;;;;;4826536;29;20049;-67
2023/08/16 06:41:06;;;;;;;18.65;15.88;;;19.70;99.90;;;;;;4825579;29;20133;-67
2023/08/16 06:43:33;;;;;;;17.95;13.40;;;19.70;99.90;;;;;;4823927;29;20119;-65
2023/08/16 06:46:00;;;;;;;17.90;14.55;;;19.70;99.90;;;;;;4824092;29;20054;-69
2023/08/16 06:48:27;;;;;;;16.77;14.65;;;19.70;99.90;;;;;;4826559;29;20687;-62
2023/08/16 06:50:55;;;;;;;17.20;15.45;;;19.70;99.90;;;;;;4823403;29;20581;-67
2023/08/16 06:53:21;;;;;;;18.75;16.85;;;19.70;99.90;;;;;;4826537;29;20046;-64
2023/08/16 06:55:48;;;;;;;20.45;18.35;;;19.70;99.90;;;;;;4826693;29;20077;-62
2023/08/16 06:58:15;;;;;;;19.85;15.68;;;19.70;99.90;;;;;;4827338;29;20465;-65
2023/08/16 07:00:45;;;;;;;18.85;14.98;;;19.60;99.90;;;;;;4820674;29;20108;-67
2023/08/16 07:03:12;;;;;;;19.77;16.20;;;19.70;99.90;;;;;;4824090;29;20058;-71
2023/08/16 07:05:39;;;;;;;17.48;15.68;;;19.70;99.90;;;;;;4821702;29;20054;-68
2023/08/16 07:08:07;;;;;;;20.67;16.45;;;19.70;99.90;;;;;;4823962;29;20050;-64
2023/08/16 07:10:34;;;;;;;19.25;16.60;;;19.70;99.90;;;;;;4825075;29;20060;-66
2023/08/16 07:13:02;;;;;;;20.77;15.38;;;19.70;99.90;;;;;;4825857;29;20049;-75
2023/08/16 07:15:29;;;;;;;17.08;15.25;;;19.70;99.90;;;;;;4818702;29;20046;-62
2023/08/16 07:17:56;;;;;;;15.05;13.55;;;19.70;99.90;;;;;;4824272;29;20080;-62
2023/08/16 07:20:23;;;;;;;15.63;13.57;;;19.70;99.90;;;;;;4826366;29;20073;-67
2023/08/16 07:22:50;;;;;;;15.32;13.80;;;19.70;99.90;;;;;;4831864;29;20512;-65
2023/08/16 07:25:17;;;;;;;17.50;14.55;;;19.80;99.90;;;;;;4829127;29;20721;-63
2023/08/16 07:27:44;;;;;;;15.23;13.73;;;19.80;99.90;;;;;;4810069;29;20058;-68
2023/08/16 07:30:12;;;;;;;16.88;13.73;;;19.70;99.90;;;;;;4824470;29;20058;-66
2023/08/16 07:32:39;;;;;;;14.48;12.77;;;19.70;99.90;;;;;;4819857;29;20057;-68
2023/08/16 07:35:07;;;;;;;16.73;14.38;;;19.70;99.90;;;;;;4828548;29;20057;-66
2023/08/16 07:37:35;;;;;;;14.93;12.75;;;19.60;99.90;;;;;;4825348;29;20077;-70
2023/08/16 07:40:03;;;;;;;15.02;13.52;;;19.70;99.90;;;;;;4820859;29;20470;-63
2023/08/16 07:42:30;;;;;;;17.88;16.05;;;19.70;99.90;;;;;;4824230;29;20077;-64
2023/08/16 07:45:02;;;;;;;16.10;14.30;;;19.70;99.90;;;;;;4825073;29;20046;-69
2023/08/16 07:47:29;;;;;;;15.80;14.02;;;19.70;99.90;;;;;;4826195;29;20077;-69
2023/08/16 07:49:56;;;;;;;19.90;13.68;;;19.70;99.90;;;;;;4821816;29;20046;-63
2023/08/16 07:52:23;;;;;;;15.43;13.95;;;19.70;99.90;;;;;;4824830;29;20496;-62
2023/08/16 07:54:50;;;;;;;16.98;14.63;;;19.70;99.90;;;;;;4824891;29;20102;-67
2023/08/16 07:57:17;;;;;;;14.48;12.98;;;19.70;99.90;;;;;;4823584;29;20107;-65
2023/08/16 07:59:44;;;;;;;18.17;14.38;;;19.70;99.90;;;;;;4826596;29;20116;-69
2023/08/16 08:02:12;;;;;;;16.80;14.32;;;19.60;99.90;;;;;;4824706;29;20506;-71
2023/08/16 08:04:39;;;;;;;18.23;16.23;;;19.60;99.90;;;;;;4827363;29;20127;-68
2023/08/16 08:07:06;;;;;;;17.20;15.35;;;19.50;99.90;;;;;;4825288;29;20074;-72
2023/08/16 08:09:32;;;;;;;19.90;14.80;;;19.50;99.90;;;;;;4823092;29;20655;-64
2023/08/16 08:12:00;;;;;;;22.92;15.55;;;19.50;99.90;;;;;;4824167;29;20114;-71
2023/08/16 08:14:27;;;;;;;21.23;16.45;;;19.50;99.90;;;;;;4823989;29;20048;-65
2023/08/16 08:16:55;;;;;;;15.50;13.65;;;19.50;99.90;;;;;;4825295;29;20172;-70
2023/08/16 08:19:22;;;;;;;19.85;13.35;;;19.40;99.90;;;;;;4828675;29;20042;-68
2023/08/16 08:21:49;;;;;;;18.10;12.65;;;19.50;99.90;;;;;;4822980;29;20136;-68
2023/08/16 08:24:16;;;;;;;17.35;15.32;;;19.50;99.90;;;;;;4831130;29;20060;-69
2023/08/16 08:26:43;;;;;;;17.75;13.65;;;19.50;99.90;;;;;;4826184;29;20692;-67
2023/08/16 08:29:10;;;;;;;13.68;12.38;;;19.50;99.90;;;;;;4823735;29;20106;-72
2023/08/16 08:31:37;;;;;;;11.45;10.27;;;19.50;99.90;;;;;;4830525;29;20048;-69
2023/08/16 08:34:03;;;;;;;10.43;9.43;;;19.40;99.90;;;;;;4823715;29;20665;-65
2023/08/16 08:36:31;;;;;;;11.23;9.05;;;19.40;99.90;;;;;;4827442;29;20053;-66
2023/08/16 08:38:59;;;;;;;10.15;9.15;;;19.40;99.90;;;;;;4821969;29;20054;-62
2023/08/16 08:41:26;;;;;;;8.68;7.88;;;19.40;99.90;;;;;;4826309;29;20129;-64
2023/08/16 08:44:08;;;;;;;10.48;9.27;;;19.40;99.90;;;;;;4823570;29;20094;-63
2023/08/16 08:46:35;;;;;;;9.82;7.90;;;19.40;99.90;;;;;;4824320;29;20120;-64
2023/08/16 08:49:03;;;;;;;9.75;7.65;;;19.30;99.90;;;;;;4824180;29;20511;-65
2023/08/16 08:51:31;;;;;;;9.07;7.95;;;19.30;99.90;;;;;;4827728;29;20103;-62
2023/08/16 08:53:58;;;;;;;9.73;8.32;;;19.30;99.90;;;;;;4821060;29;20527;-69
2023/08/16 08:56:27;;;;;;;8.43;7.30;;;19.20;99.90;;;;;;4822617;29;20050;-69
2023/08/16 08:59:00;;;;;;;9.73;7.10;;;19.20;99.90;;;;;;4824469;29;20056;-64
2023/08/16 09:01:40;;;;;;;8.77;7.65;;;19.20;99.90;;;;;;4826645;29;20052;-61
2023/08/16 09:04:09;;;;;;;9.02;7.30;;;19.20;99.90;;;;;;4825773;29;20980;-64
2023/08/16 09:06:36;;;;;;;10.85;7.43;;;19.20;99.90;;;;;;4823269;29;20073;-65
2023/08/16 09:09:04;;;;;;;9.07;6.22;;;19.20;99.90;;;;;;4826167;29;20079;-65
2023/08/16 09:11:32;;;;;;;13.90;7.68;;;19.20;99.90;;;;;;4821613;29;20046;-62
2023/08/16 09:14:02;;;;;;;6.47;5.65;;;19.20;99.90;;;;;;4823962;29;20042;-62
2023/08/16 09:16:29;;;;;;;6.90;5.45;;;19.20;99.90;;;;;;4823886;29;20076;-66
2023/08/16 09:18:56;;;;;;;8.70;7.80;;;19.20;99.90;;;;;;4823865;29;20046;-65
2023/08/16 09:21:28;;;;;;;7.50;5.60;;;19.20;99.90;;;;;;4828779;29;20449;-66
2023/08/16 09:23:56;;;;;;;6.00;5.40;;;19.10;99.90;;;;;;4831700;29;20054;-66
2023/08/16 09:26:24;;;;;;;6.80;6.15;;;19.20;99.90;;;;;;4829794;29;20066;-75
2023/08/16 09:29:04;;;;;;;6.65;5.10;;;19.30;99.90;;;;;;4828698;29;20050;-61
2023/08/16 09:31:37;;;;;;;;;;;19.40;99.90;;;;;;4829820;29;20062;-65
2023/08/16 09:34:05;;;;;;;7.50;6.43;;;19.40;99.90;;;;;;4825188;29;19959;-64
2023/08/16 09:36:36;;;;;;;8.57;7.78;;;19.40;99.90;;;;;;4825080;29;20046;-71
2023/08/16 09:39:09;;;;;;;8.65;7.28;;;19.30;99.90;;;;;;4828711;29;20046;-65
2023/08/16 09:41:46;;;;;;;8.10;7.40;;;19.40;99.90;;;;;;4828468;29;20049;-64
2023/08/16 09:44:13;;;;;;;8.20;6.85;;;19.40;99.90;;;;;;4828037;29;20090;-67
2023/08/16 09:46:41;;;;;;;6.63;5.97;;;19.30;99.90;;;;;;4826957;29;20182;-67
2023/08/16 09:49:11;;;;;;;8.30;7.30;;;19.30;99.90;;;;;;4827329;29;20070;-69
2023/08/16 09:51:40;;;;;;;7.80;7.00;;;19.30;99.90;;;;;;4826691;29;20101;-65
2023/08/16 09:54:14;;;;;;;8.77;7.50;;;19.30;99.90;;;;;;4827763;29;20665;-70
2023/08/16 09:56:43;;;;;;;7.70;6.70;;;19.30;99.90;;;;;;4826977;29;20517;-64
2023/08/16 09:59:34;;;;;;;7.85;6.63;;;19.30;99.90;;;;;;4827604;29;20083;-66
2023/08/16 10:02:07;;;;;;;13.77;7.38;;;19.30;99.90;;;;;;4825014;29;20056;-70
2023/08/16 10:04:39;;;;;;;7.88;6.93;;;19.20;99.90;;;;;;4823255;29;20153;-67
2023/08/16 10:07:09;;;;;;;11.40;7.55;;;19.20;99.90;;;;;;4828403;29;20134;-71
2023/08/16 10:09:43;;;;;;;9.82;8.18;;;19.20;99.90;;;;;;4821677;29;20074;-69
2023/08/16 10:12:11;;;;;;;;;;;19.20;99.90;;;;;;4825507;29;20060;-70
2023/08/16 10:14:38;;;;;;;9.88;7.50;;;19.40;99.90;;;;;;4827264;29;19977;-64
2023/08/16 10:17:07;;;;;;;10.25;8.02;;;19.50;99.90;;;;;;4820056;29;20047;-71
2023/08/16 10:19:38;;;;;;;9.13;8.18;;;19.60;99.90;;;;;;4830326;29;20062;-67
2023/08/16 10:22:21;;;;;;;9.85;7.57;;;19.70;99.90;;;;;;4828059;29;20039;-73
2023/08/16 10:25:13;;;;;;;11.02;9.07;;;19.80;99.90;;;;;;4822593;29;20047;-68
2023/08/16 10:27:44;;;;;;;18.13;7.72;;;19.80;99.90;;;;;;4827518;29;20046;-64
2023/08/16 10:30:23;;;;;;;10.25;7.88;;;19.80;99.90;;;;;;4825865;29;20424;-68
2023/08/16 10:32:57;;;;;;;8.90;6.47;;;19.80;99.90;;;;;;4826880;29;20045;-69
2023/08/16 10:35:25;;;;;;;7.30;6.60;;;19.80;99.90;;;;;;4830819;29;20053;-61
2023/08/16 10:37:53;;;;;;;7.30;5.78;;;19.70;99.90;;;;;;4828977;29;20466;-64
2023/08/16 10:40:21;;;;;;;5.95;5.40;;;19.70;99.90;;;;;;4824323;29;20057;-61
2023/08/16 10:42:58;;;;;;;5.35;4.85;;;19.70;99.90;;;;;;4830350;29;20580;-66
2023/08/16 10:45:30;;;;;;;5.70;4.65;;;19.70;99.90;;;;;;4826201;29;20065;-62
2023/08/16 10:48:17;;;;;;;4.93;4.43;;;19.60;99.90;;;;;;4827472;29;20042;-64
2023/08/16 10:50:54;;;;;;;4.38;3.67;;;19.70;99.90;;;;;;4825086;29;20077;-69
2023/08/16 10:53:25;;;;;;;4.80;4.28;;;19.70;99.90;;;;;;4825619;29;20042;-64
2023/08/16 10:55:53;;;;;;;9.50;6.22;;;19.80;99.90;;;;;;4829240;29;20073;-61
2023/08/16 10:58:22;;;;;;;5.03;4.22;;;19.70;99.90;;;;;;4823428;29;20450;-66
2023/08/16 11:00:57;;;;;;;4.70;3.80;;;19.70;99.90;;;;;;4823855;29;20110;-70
2023/08/16 11:03:35;;;;;;;4.53;3.97;;;19.70;99.90;;;;;;4827775;29;20148;-64
2023/08/16 11:06:12;;;;;;;5.50;4.10;;;19.80;99.90;;;;;;4827406;29;20386;-65
2023/08/16 11:08:44;;;;;;;5.68;3.50;;;19.90;99.90;;;;;;4827385;29;20061;-69
2023/08/16 11:11:12;;;;;;;5.25;3.72;;;20.00;99.90;;;;;;4827895;29;20118;-69
2023/08/16 11:13:40;;;;;;;5.80;3.53;;;20.00;99.90;;;;;;4823468;29;20050;-74
2023/08/16 11:16:09;;;;;;;3.63;2.75;;;20.10;99.90;;;;;;4825147;29;20078;-74
2023/08/16 11:18:39;;;;;;;3.80;2.55;;;20.10;99.90;;;;;;4825817;29;20106;-68
2023/08/16 11:21:13;;;;;;;2.63;2.17;;;20.10;99.90;;;;;;4830267;29;20126;-65
2023/08/16 11:23:42;;;;;;;3.70;2.72;;;20.20;99.90;;;;;;4829818;29;20490;-66
2023/08/16 11:26:11;;;;;;;4.20;2.08;;;20.30;99.90;;;;;;4829109;29;20645;-62
2023/08/16 11:28:39;;;;;;;3.08;2.05;;;20.30;99.90;;;;;;4826116;29;20166;-68
2023/08/16 11:31:07;;;;;;;3.40;2.58;;;20.40;99.90;;;;;;4829210;29;20509;-66
2023/08/16 11:33:36;;;;;;;2.13;1.80;;;20.40;99.90;;;;;;4824164;29;20061;-66
2023/08/16 11:36:06;;;;;;;2.53;2.28;;;20.60;99.90;;;;;;4827588;29;20064;-63
2023/08/16 11:38:38;;;;;;;9.07;3.45;;;20.70;99.90;;;;;;4823819;29;20078;-64
2023/08/16 11:41:06;;;;;;;5.22;4.25;;;20.60;99.90;;;;;;4824111;29;20053;-65
2023/08/16 11:43:35;;;;;;;4.88;3.35;;;20.70;99.90;;;;;;4824683;29;20046;-62
2023/08/16 11:46:04;;;;;;;3.08;2.88;;;20.60;99.90;;;;;;4824719;29;20532;-63
2023/08/16 11:48:34;;;;;;;7.90;3.33;;;20.70;99.90;;;;;;4825181;29;20120;-68
2023/08/16 11:51:02;;;;;;;3.55;2.88;;;20.60;99.90;;;;;;4830425;29;20383;-64
2023/08/16 11:53:36;;;;;;;3.85;3.38;;;20.60;99.90;;;;;;4828345;29;20081;-61
2023/08/16 11:56:12;;;;;;;5.70;3.40;;;20.60;99.90;;;;;;4824892;29;20137;-69
2023/08/16 11:58:46;;;;;;;8.10;4.47;;;20.60;99.90;;;;;;4829614;29;20049;-70
2023/08/16 12:01:14;;;;;;;4.78;3.65;;;20.70;99.90;;;;;;4823234;29;20419;-64
2023/08/16 12:03:46;;;;;;;4.30;4.00;;;20.70;99.90;;;;;;4822632;29;20058;-61
2023/08/16 12:06:16;;;;;;;5.95;4.90;;;20.80;99.90;;;;;;4826736;29;20547;-73
2023/08/16 12:08:53;;;;;;;5.95;3.83;;;20.90;99.90;;;;;;4826067;29;20133;-63
2023/08/16 12:11:32;;;;;;;4.35;3.95;;;21.00;99.90;;;;;;4819037;29;20058;-64
2023/08/16 12:14:01;;;;;;;4.47;4.00;;;21.10;99.90;;;;;;4824851;29;20056;-63
2023/08/16 12:16:33;;;;;;;5.85;4.50;;;21.10;99.90;;;;;;4825830;29;20392;-67
2023/08/16 12:19:00;;;;;;;4.05;3.22;;;21.00;99.90;;;;;;4821490;29;20818;-64
2023/08/16 12:21:27;;;;;;;4.15;3.72;;;21.00;99.90;;;;;;4826872;29;20046;-63
2023/08/16 12:23:54;;;;;;;6.75;4.65;;;21.00;99.90;;;;;;4828264;29;20061;-70
2023/08/16 12:26:21;;;;;;;3.67;3.35;;;21.10;99.90;;;;;;4827961;29;20046;-63
2023/08/16 12:28:48;;;;;;;7.78;4.32;;;21.10;99.90;;;;;;4823635;29;20129;-62
2023/08/16 12:31:15;;;;;;;4.95;4.55;;;21.30;99.90;;;;;;4824209;29;20054;-61
2023/08/16 12:33:43;;;;;;;6.03;3.50;;;21.50;99.90;;;;;;4824160;29;20052;-64
2023/08/16 12:36:12;;;;;;;10.68;4.60;;;21.70;99.90;;;;;;4825476;29;20122;-70
2023/08/16 12:38:40;;;;;;;8.18;5.30;;;21.90;99.90;;;;;;4821083;29;20045;-65
2023/08/16 12:41:07;;;;;;;5.43;4.80;;;22.10;99.90;;;;;;4827124;29;20053;-63
2023/08/16 12:43:34;;;;;;;5.60;5.10;;;22.10;99.90;;;;;;4824473;29;20053;-62